Terminal Aerodrome Forecast
Issued by NWS

Home | Current Version | Previous Version | Graphics & Text | Print | Product List | Glossary On
Versions: 1 2 3 4 5 6 7 8 9 10 11 12 13 14 15 16 17 18 19 20 21 22 23 24 25 26 27 28 29 30 31 32 33 34 35 36
000
FTUS43 KLOT 260300 AAB
TAFORD
TAF AMD
KORD 260359Z 2604/2706 03011KT 3SM -SN BR SCT015 OVC035
      TEMPO 2604/2608 3/4SM -SN BR BKN013
     FM260800 03011KT 2SM -SHSN BKN013 OVC035
     FM261400 02012G17KT 4SM -SHSN SCT014 OVC035
     FM261800 36012G17KT P6SM VCSH OVC040
     FM262100 34012KT P6SM BKN035=

USA.gov is the U.S. government's official web portal to all federal, state and local government web resources and services.